Time;durP1;ratioP1;P1;durP2;ratioP2;P2;SDS_P1;SDS_P2;PMS_P1;PMS_P2;Temp;Humidity;BMP_temperature;BMP_pressure;BME280_temperature;BME280_humidity;BME280_pressure;Samples;Min_cycle;Max_cycle;Signal;HPM_P1;HPM_P2
2023/02/22 00:02:24;;;;;;;0.90;0.90;;;-6.30;99.90;;;;;;5031661;28;20256;-71
2023/02/22 00:04:34;;;;;;;0.97;0.97;;;-6.30;99.90;;;;;;5031387;28;20213;-72
2023/02/22 00:07:03;;;;;;;0.83;0.83;;;-6.30;99.90;;;;;;5058284;28;20232;-71
2023/02/22 00:09:29;;;;;;;1.47;1.37;;;-6.30;99.90;;;;;;5072367;28;20193;-71
2023/02/22 00:11:57;;;;;;;0.90;0.90;;;-6.30;99.90;;;;;;5073290;28;20665;-71
2023/02/22 00:14:26;;;;;;;0.90;0.90;;;-6.40;99.90;;;;;;5073204;28;20679;-69
2023/02/22 00:16:58;;;;;;;0.80;0.80;;;-6.40;99.90;;;;;;5071699;28;20208;-71
2023/02/22 00:19:29;;;;;;;0.80;0.80;;;-6.40;99.90;;;;;;5072669;28;20207;-71
2023/02/22 00:21:56;;;;;;;0.80;0.80;;;-6.40;99.90;;;;;;5072658;28;20192;-71
2023/02/22 00:24:23;;;;;;;0.80;0.80;;;-6.50;99.90;;;;;;5072518;28;20216;-72
2023/02/22 00:26:54;;;;;;;0.70;0.70;;;-6.50;99.90;;;;;;5072473;28;20258;-71
2023/02/22 00:29:21;;;;;;;0.73;0.73;;;-6.40;99.90;;;;;;5072704;28;20594;-71
2023/02/22 00:31:50;;;;;;;0.90;0.90;;;-6.50;99.90;;;;;;5072729;28;20200;-70
2023/02/22 00:34:16;;;;;;;1.00;1.00;;;-6.50;99.90;;;;;;5072474;28;20585;-71
2023/02/22 00:36:49;;;;;;;0.90;0.90;;;-6.50;99.90;;;;;;5072602;28;20193;-71
2023/02/22 00:39:15;;;;;;;0.80;0.80;;;-6.50;99.90;;;;;;5072408;28;20693;-72
2023/02/22 00:41:44;;;;;;;0.83;0.83;;;-6.50;99.90;;;;;;5071195;28;20276;-71
2023/02/22 00:44:12;;;;;;;1.13;1.13;;;-6.50;99.90;;;;;;5078482;28;20188;-71
2023/02/22 00:46:38;;;;;;;0.80;0.80;;;-6.50;99.90;;;;;;5092664;28;20193;-71
2023/02/22 00:49:04;;;;;;;0.87;0.87;;;-6.50;99.90;;;;;;5093109;28;20672;-71
2023/02/22 00:51:29;;;;;;;0.90;0.90;;;-6.50;99.90;;;;;;5074551;28;20567;-72
2023/02/22 00:53:55;;;;;;;0.90;0.90;;;-6.50;99.90;;;;;;5091525;28;20224;-71
2023/02/22 00:56:21;;;;;;;0.80;0.80;;;-6.50;99.90;;;;;;5078938;28;20235;-71
2023/02/22 00:58:46;;;;;;;0.80;0.80;;;-6.50;99.90;;;;;;5076197;28;20228;-71
2023/02/22 01:01:15;;;;;;;0.90;0.90;;;-6.60;99.90;;;;;;5074743;28;20189;-71
2023/02/22 01:03:47;;;;;;;0.90;0.90;;;-6.60;99.90;;;;;;5076088;28;20224;-71
2023/02/22 01:06:15;;;;;;;0.80;0.80;;;-6.60;99.90;;;;;;5075628;28;20224;-71
2023/02/22 01:08:46;;;;;;;0.70;0.70;;;-6.60;99.90;;;;;;5076050;28;20200;-71
2023/02/22 01:11:14;;;;;;;0.77;0.77;;;-6.50;99.90;;;;;;5076065;28;20189;-71
2023/02/22 01:13:44;;;;;;;0.80;0.80;;;-6.50;99.90;;;;;;5075196;28;20200;-71
2023/02/22 01:16:12;;;;;;;0.80;0.80;;;-6.50;99.90;;;;;;5075576;28;20192;-71
2023/02/22 01:18:46;;;;;;;0.80;0.80;;;-6.60;99.90;;;;;;5075529;28;20205;-71
2023/02/22 01:21:15;;;;;;;0.80;0.80;;;-6.50;99.90;;;;;;5075842;28;20559;-71
2023/02/22 01:23:44;;;;;;;0.90;0.90;;;-6.60;99.90;;;;;;5075073;28;20710;-71
2023/02/22 01:26:13;;;;;;;2.10;2.00;;;-6.60;99.90;;;;;;5057674;28;20200;-71
2023/02/22 01:28:39;;;;;;;0.70;0.70;;;-6.50;99.90;;;;;;5057723;28;20208;-71
2023/02/22 01:31:05;;;;;;;0.90;0.90;;;-6.60;99.90;;;;;;5057888;28;20560;-71
2023/02/22 01:33:30;;;;;;;0.90;0.90;;;-6.60;99.90;;;;;;5053744;28;20343;-71
2023/02/22 01:35:59;;;;;;;0.80;0.80;;;-6.60;99.90;;;;;;5055533;28;20193;-71
2023/02/22 01:38:25;;;;;;;0.80;0.80;;;-6.60;99.90;;;;;;5055556;28;20242;-71
2023/02/22 01:40:51;;;;;;;0.90;0.90;;;-6.60;99.90;;;;;;5074766;28;20247;-71
2023/02/22 01:43:26;;;;;;;0.80;0.80;;;-6.50;99.90;;;;;;5095576;28;20191;-71
2023/02/22 01:46:04;;;;;;;0.80;0.80;;;-6.50;99.90;;;;;;5077848;28;20200;-71
2023/02/22 01:48:32;;;;;;;0.80;0.80;;;-6.60;99.90;;;;;;5094440;28;20207;-71
2023/02/22 01:51:09;;;;;;;0.80;0.80;;;-6.60;99.90;;;;;;5095482;28;20281;-72
2023/02/22 01:54:04;;;;;;;0.80;0.80;;;-6.60;99.90;;;;;;5055178;28;20583;-71
2023/02/22 01:56:37;;;;;;;1.10;1.10;;;-6.50;99.90;;;;;;5050148;28;20209;-74
2023/02/22 01:59:07;;;;;;;0.80;0.80;;;-6.50;99.90;;;;;;5055131;28;20217;-72
2023/02/22 02:01:34;;;;;;;0.80;0.80;;;-6.40;99.90;;;;;;5054908;28;20207;-72
2023/02/22 02:04:05;;;;;;;0.80;0.80;;;-6.30;99.90;;;;;;5078414;22;20281;-68
2023/02/22 02:06:33;;;;;;;0.70;0.70;;;-6.20;99.90;;;;;;5074200;28;20197;-68
2023/02/22 02:09:09;;;;;;;1.83;1.73;;;-6.10;99.90;;;;;;5073414;28;20226;-68
2023/02/22 02:11:39;;;;;;;2.63;1.20;;;-6.00;99.90;;;;;;5056072;28;20205;-68
2023/02/22 02:14:06;;;;;;;0.90;0.90;;;-6.00;99.90;;;;;;5073898;28;20209;-68
2023/02/22 02:16:38;;;;;;;1.00;1.00;;;-5.90;99.90;;;;;;5073955;28;20213;-68
2023/02/22 02:19:19;;;;;;;0.87;0.87;;;-5.70;99.90;;;;;;5056063;28;20232;-68
2023/02/22 02:22:03;;;;;;;0.70;0.70;;;-5.50;99.90;;;;;;5074281;28;20236;-68
2023/02/22 02:25:03;;;;;;;0.77;0.77;;;-5.30;99.90;;;;;;5069833;28;20585;-69
2023/02/22 02:27:51;;;;;;;0.80;0.80;;;-5.20;99.90;;;;;;5026414;28;20271;-69
2023/02/22 02:30:35;;;;;;;0.77;0.77;;;-5.10;99.90;;;;;;5053855;28;20292;-68
2023/02/22 02:33:21;;;;;;;0.80;0.80;;;-5.00;99.90;;;;;;5062111;28;20204;-68
2023/02/22 02:35:50;;;;;;;0.80;0.80;;;-4.90;99.90;;;;;;5073834;28;20200;-68
2023/02/22 02:38:44;;;;;;;0.70;0.70;;;-4.80;99.90;;;;;;5073673;28;20231;-68
2023/02/22 02:41:19;;;;;;;0.80;0.80;;;-4.80;99.90;;;;;;5073633;28;20197;-68
2023/02/22 02:43:53;;;;;;;0.70;0.70;;;-4.70;99.90;;;;;;5073512;28;20673;-68
2023/02/22 02:46:33;;;;;;;0.75;0.75;;;-4.70;99.90;;;;;;5073369;28;20184;-69
2023/02/22 02:49:04;;;;;;;0.90;0.90;;;-4.60;99.90;;;;;;5073173;28;20197;-68
2023/02/22 02:51:36;;;;;;;0.70;0.70;;;-4.50;99.90;;;;;;5073329;28;20196;-69
2023/02/22 02:54:04;;;;;;;0.77;0.77;;;-4.50;99.90;;;;;;5073392;28;20203;-67
2023/02/22 02:56:30;;;;;;;0.70;0.70;;;-4.40;99.90;;;;;;5055159;28;20197;-68
2023/02/22 02:58:56;;;;;;;0.80;0.80;;;-4.30;99.90;;;;;;5073253;28;20207;-68
2023/02/22 03:01:40;;;;;;;0.80;0.80;;;-4.30;99.90;;;;;;5072432;28;20659;-68
2023/02/22 03:04:30;;;;;;;0.73;0.73;;;-4.30;99.90;;;;;;5072870;28;20217;-68
2023/02/22 03:07:27;;;;;;;0.65;0.65;;;-4.30;99.90;;;;;;5073062;28;20200;-68
2023/02/22 03:10:20;;;;;;;0.80;0.80;;;-4.30;99.90;;;;;;5072929;28;20185;-69
2023/02/22 03:13:13;;;;;;;0.70;0.70;;;-4.30;99.90;;;;;;5073065;28;20302;-68
2023/02/22 03:15:39;;;;;;;0.70;0.70;;;-4.30;99.90;;;;;;5072674;28;20192;-67
2023/02/22 03:18:16;;;;;;;0.77;0.77;;;-4.20;99.90;;;;;;5073011;28;20188;-68
2023/02/22 03:21:39;;;;;;;0.80;0.80;;;-4.20;99.90;;;;;;5054681;28;20227;-69
2023/02/22 03:24:17;;;;;;;0.70;0.70;;;-4.20;99.90;;;;;;4991449;28;20200;-68
2023/02/22 03:27:10;;;;;;;0.60;0.60;;;-4.20;99.90;;;;;;4991410;28;20191;-68
2023/02/22 03:29:41;;;;;;;0.70;0.70;;;-4.20;99.90;;;;;;4991283;28;20230;-68
2023/02/22 03:32:13;;;;;;;0.80;0.80;;;-4.20;99.90;;;;;;4991425;28;20242;-68
2023/02/22 03:34:46;;;;;;;0.70;0.70;;;-4.20;99.90;;;;;;4971771;28;20756;-68
2023/02/22 03:37:24;;;;;;;0.70;0.70;;;-4.20;99.90;;;;;;4992088;28;20203;-69
2023/02/22 03:39:53;;;;;;;0.70;0.70;;;-4.20;99.90;;;;;;5010812;28;20600;-68
2023/02/22 03:42:25;;;;;;;0.82;0.82;;;-4.20;99.90;;;;;;5010611;28;20206;-69
2023/02/22 03:44:54;;;;;;;0.80;0.80;;;-4.20;99.90;;;;;;4999185;28;20198;-69
2023/02/22 03:47:27;;;;;;;0.80;0.80;;;-4.20;99.90;;;;;;4991047;28;20207;-71
2023/02/22 03:50:05;;;;;;;0.77;0.77;;;-4.20;99.90;;;;;;4990961;28;20223;-68
2023/02/22 03:52:33;;;;;;;0.70;0.70;;;-4.20;99.90;;;;;;4990947;28;20262;-68
2023/02/22 03:55:01;;;;;;;0.80;0.80;;;-4.20;99.90;;;;;;5047906;28;20477;-68
2023/02/22 03:57:31;;;;;;;0.80;0.80;;;-4.20;99.90;;;;;;5072273;28;20196;-68
2023/02/22 03:59:57;;;;;;;0.63;0.63;;;-4.20;99.90;;;;;;5072328;28;20211;-69
2023/02/22 04:02:23;;;;;;;0.82;0.82;;;-4.20;99.90;;;;;;5061493;28;20224;-70
2023/02/22 04:04:49;;;;;;;0.80;0.80;;;-4.20;99.90;;;;;;5054047;28;20205;-68
2023/02/22 04:07:15;;;;;;;0.60;0.60;;;-4.10;99.90;;;;;;5072198;28;20243;-68
2023/02/22 04:09:41;;;;;;;0.70;0.70;;;-4.10;99.90;;;;;;5054201;28;20204;-68
2023/02/22 04:12:07;;;;;;;0.77;0.77;;;-4.10;99.90;;;;;;5072221;28;20196;-68
2023/02/22 04:14:33;;;;;;;0.80;0.80;;;-4.10;99.90;;;;;;5072131;28;20201;-68
2023/02/22 04:16:58;;;;;;;0.70;0.70;;;-4.10;99.90;;;;;;5072246;28;20193;-68
2023/02/22 04:19:24;;;;;;;0.70;0.70;;;-4.00;99.90;;;;;;5071849;28;20227;-68
2023/02/22 04:21:50;;;;;;;0.80;0.80;;;-4.00;99.90;;;;;;5054188;28;20232;-68
2023/02/22 04:24:16;;;;;;;0.90;0.90;;;-3.90;99.90;;;;;;5072082;28;20189;-67
2023/02/22 04:26:41;;;;;;;0.80;0.80;;;-3.90;99.90;;;;;;5071780;28;20188;-68
2023/02/22 04:29:07;;;;;;;0.70;0.70;;;-3.90;99.90;;;;;;5072259;28;20204;-68
2023/02/22 04:31:33;;;;;;;0.70;0.70;;;-3.90;99.90;;;;;;5072733;28;20200;-68
2023/02/22 04:34:00;;;;;;;0.70;0.70;;;-3.80;99.90;;;;;;5075894;28;20339;-68
2023/02/22 04:36:26;;;;;;;0.73;0.73;;;-3.80;99.90;;;;;;5061900;28;20598;-68
2023/02/22 04:38:52;;;;;;;0.70;0.70;;;-3.80;99.90;;;;;;5096213;28;20208;-68
2023/02/22 04:41:19;;;;;;;0.77;0.77;;;-3.80;99.90;;;;;;5082452;28;20197;-76
2023/02/22 04:43:45;;;;;;;0.80;0.80;;;-3.80;99.90;;;;;;5075753;28;20643;-69
2023/02/22 04:46:14;;;;;;;0.70;0.70;;;-3.70;99.90;;;;;;5075828;28;20201;-74
2023/02/22 04:48:39;;;;;;;0.57;0.57;;;-3.70;99.90;;;;;;5075690;28;20196;-69
2023/02/22 04:51:05;;;;;;;0.65;0.65;;;-3.70;99.90;;;;;;5075682;28;20207;-68
2023/02/22 04:53:31;;;;;;;0.70;0.70;;;-3.70;99.90;;;;;;5057423;28;20201;-68
2023/02/22 04:55:56;;;;;;;0.80;0.80;;;-3.70;99.90;;;;;;5075515;28;20193;-71
2023/02/22 04:58:22;;;;;;;0.70;0.70;;;-3.60;99.90;;;;;;5075351;28;20247;-68
2023/02/22 05:00:48;;;;;;;0.70;0.70;;;-3.60;99.90;;;;;;5075442;28;20205;-68
2023/02/22 05:03:14;;;;;;;0.65;0.65;;;-3.60;99.90;;;;;;5047206;28;20226;-66
2023/02/22 05:05:39;;;;;;;2.50;2.05;;;-3.60;99.90;;;;;;5055294;28;20311;-69
2023/02/22 05:08:05;;;;;;;0.63;0.63;;;-3.60;99.90;;;;;;5055517;28;20735;-68
2023/02/22 05:10:31;;;;;;;0.77;0.77;;;-3.60;99.90;;;;;;5055234;28;20685;-68
2023/02/22 05:12:57;;;;;;;0.60;0.60;;;-3.50;99.90;;;;;;5055440;28;20659;-69
2023/02/22 05:15:24;;;;;;;0.63;0.63;;;-3.50;99.90;;;;;;5037213;28;20659;-69
2023/02/22 05:17:50;;;;;;;0.80;0.80;;;-3.50;99.90;;;;;;5055395;28;20678;-68
2023/02/22 05:20:33;;;;;;;0.75;0.75;;;-3.40;99.90;;;;;;5055070;28;20213;-69
2023/02/22 05:23:00;;;;;;;0.80;0.80;;;-3.40;99.90;;;;;;5036874;28;20198;-68
2023/02/22 05:25:27;;;;;;;0.70;0.70;;;-3.40;99.90;;;;;;5034928;28;20661;-68
2023/02/22 05:27:56;;;;;;;0.80;0.80;;;-3.30;99.90;;;;;;5017400;28;20661;-68
2023/02/22 05:30:25;;;;;;;0.73;0.73;;;-3.30;99.90;;;;;;5017480;28;20202;-69
2023/02/22 05:32:52;;;;;;;0.90;0.90;;;-3.30;99.90;;;;;;5040413;28;20217;-68
2023/02/22 05:35:22;;;;;;;0.70;0.70;;;-3.20;99.90;;;;;;5055011;28;20204;-69
2023/02/22 05:37:49;;;;;;;0.70;0.70;;;-3.20;99.90;;;;;;5054572;28;20204;-68
2023/02/22 05:40:20;;;;;;;0.80;0.80;;;-3.20;99.90;;;;;;5054700;28;20201;-69
2023/02/22 05:42:47;;;;;;;0.77;0.77;;;-3.20;99.90;;;;;;5053900;28;20189;-69
2023/02/22 05:45:14;;;;;;;0.77;0.77;;;-3.20;99.90;;;;;;5036410;28;20605;-69
2023/02/22 05:47:40;;;;;;;0.88;0.88;;;-3.20;99.90;;;;;;5036707;28;20564;-69
2023/02/22 05:50:07;;;;;;;0.98;0.98;;;-3.20;99.90;;;;;;5054676;28;20197;-69
2023/02/22 05:52:32;;;;;;;0.70;0.70;;;-3.20;99.90;;;;;;5036503;28;20244;-68
2023/02/22 05:54:58;;;;;;;0.77;0.77;;;-3.20;99.90;;;;;;5053058;28;20221;-69
2023/02/22 05:57:24;;;;;;;0.73;0.73;;;-3.20;99.90;;;;;;5034349;28;20599;-68
2023/02/22 05:59:50;;;;;;;0.73;0.73;;;-3.20;99.90;;;;;;5047773;28;20217;-68
2023/02/22 06:02:15;;;;;;;0.70;0.70;;;-3.10;99.90;;;;;;5056186;28;20194;-69
2023/02/22 06:04:45;;;;;;;0.70;0.70;;;-3.10;99.90;;;;;;5074223;28;20201;-69
2023/02/22 06:07:13;;;;;;;0.82;0.82;;;-3.10;99.90;;;;;;5074495;28;20227;-68
2023/02/22 06:09:38;;;;;;;0.70;0.70;;;-3.10;99.90;;;;;;5074144;28;20248;-68
2023/02/22 06:12:04;;;;;;;0.70;0.70;;;-3.10;99.90;;;;;;5074025;28;20188;-68
2023/02/22 06:14:30;;;;;;;0.93;0.93;;;-3.10;99.90;;;;;;5074037;28;20312;-69
2023/02/22 06:16:57;;;;;;;0.70;0.70;;;-3.00;99.90;;;;;;5056203;28;20197;-69
2023/02/22 06:19:23;;;;;;;1.52;1.42;;;-3.00;99.90;;;;;;5073893;28;20203;-69
2023/02/22 06:21:54;;;;;;;0.70;0.70;;;-3.00;99.90;;;;;;5074036;28;20200;-68
2023/02/22 06:24:21;;;;;;;0.80;0.80;;;-3.00;99.90;;;;;;5073932;28;20685;-69
2023/02/22 06:27:00;;;;;;;0.60;0.60;;;-2.90;99.90;;;;;;5055965;28;20292;-69
2023/02/22 06:29:27;;;;;;;0.70;0.70;;;-2.90;99.90;;;;;;5082004;28;20334;-68
2023/02/22 06:31:53;;;;;;;0.60;0.60;;;-2.80;99.90;;;;;;5094010;28;20196;-68
2023/02/22 06:34:20;;;;;;;0.63;0.63;;;-2.70;99.90;;;;;;5066218;28;20234;-69
2023/02/22 06:36:47;;;;;;;0.60;0.60;;;-2.70;99.90;;;;;;5073751;28;20266;-67
2023/02/22 06:39:14;;;;;;;0.55;0.55;;;-2.70;99.90;;;;;;5073640;28;20682;-69
2023/02/22 06:41:44;;;;;;;0.70;0.70;;;-2.70;99.90;;;;;;5073539;28;20196;-69
2023/02/22 06:44:10;;;;;;;0.52;0.52;;;-2.60;99.90;;;;;;5073536;28;20191;-68
2023/02/22 06:46:36;;;;;;;0.80;0.80;;;-2.60;99.90;;;;;;5073359;28;20250;-68
2023/02/22 06:49:03;;;;;;;0.93;0.93;;;-2.60;99.90;;;;;;5073410;28;20243;-68
2023/02/22 06:51:29;;;;;;;0.70;0.70;;;-2.60;99.90;;;;;;5073068;28;20209;-69
2023/02/22 06:53:55;;;;;;;0.70;0.70;;;-2.50;99.90;;;;;;5073141;28;20624;-69
2023/02/22 06:56:21;;;;;;;0.60;0.60;;;-2.50;99.90;;;;;;5072716;28;20276;-68
2023/02/22 06:58:48;;;;;;;0.68;0.68;;;-2.50;99.90;;;;;;5073450;28;20199;-69
2023/02/22 07:01:14;;;;;;;0.80;0.80;;;-2.50;99.90;;;;;;5055163;28;20193;-68
2023/02/22 07:03:40;;;;;;;0.63;0.63;;;-2.40;99.90;;;;;;5073065;28;20286;-69
2023/02/22 07:06:06;;;;;;;0.80;0.80;;;-2.40;99.90;;;;;;5073088;28;20193;-68
2023/02/22 07:08:31;;;;;;;0.65;0.65;;;-2.30;99.90;;;;;;5072942;28;20257;-69
2023/02/22 07:10:57;;;;;;;0.80;0.80;;;-2.30;99.90;;;;;;5054979;28;20193;-68
2023/02/22 07:13:23;;;;;;;0.70;0.70;;;-2.30;99.90;;;;;;5072773;28;20667;-69
2023/02/22 07:15:49;;;;;;;0.65;0.65;;;-2.20;99.90;;;;;;5072985;28;20265;-69
2023/02/22 07:18:15;;;;;;;0.63;0.63;;;-2.20;99.90;;;;;;5054893;28;20200;-69
2023/02/22 07:20:41;;;;;;;0.80;0.80;;;-2.10;99.90;;;;;;5072715;28;20589;-69
2023/02/22 07:23:07;;;;;;;0.77;0.77;;;-2.00;99.90;;;;;;5072898;28;20189;-68
2023/02/22 07:25:34;;;;;;;0.80;0.80;;;-2.00;99.90;;;;;;5079586;28;20215;-69
2023/02/22 07:28:00;;;;;;;0.70;0.70;;;-1.90;99.90;;;;;;5093073;28;20196;-68
2023/02/22 07:30:31;;;;;;;0.60;0.60;;;-1.80;99.90;;;;;;5058074;28;20252;-69
2023/02/22 07:33:03;;;;;;;0.60;0.60;;;-1.80;99.90;;;;;;5066086;28;20198;-69
2023/02/22 07:35:31;;;;;;;0.70;0.70;;;-1.70;99.90;;;;;;5052511;28;20252;-68
2023/02/22 07:37:57;;;;;;;0.70;0.70;;;-1.60;99.90;;;;;;5052710;28;20674;-71
2023/02/22 07:40:25;;;;;;;0.70;0.70;;;-1.50;99.90;;;;;;5052424;28;20212;-69
2023/02/22 07:42:54;;;;;;;0.60;0.60;;;-1.50;99.90;;;;;;5052645;28;20193;-69
2023/02/22 07:45:20;;;;;;;0.80;0.80;;;-1.40;99.90;;;;;;5052537;28;20193;-69
2023/02/22 07:47:47;;;;;;;0.60;0.60;;;-1.30;99.90;;;;;;5056146;28;20558;-68
2023/02/22 07:50:14;;;;;;;0.60;0.60;;;-1.30;99.90;;;;;;5072538;28;20268;-69
2023/02/22 07:52:44;;;;;;;0.63;0.63;;;-1.30;99.90;;;;;;5072241;28;20689;-69
2023/02/22 07:55:09;;;;;;;0.70;0.70;;;-1.30;99.90;;;;;;5072569;28;20197;-69
2023/02/22 07:57:35;;;;;;;0.65;0.65;;;-1.30;99.90;;;;;;5072286;28;20707;-68
2023/02/22 08:00:01;;;;;;;0.65;0.65;;;-1.20;99.90;;;;;;5072283;28;20273;-68
2023/02/22 08:02:27;;;;;;;0.68;0.68;;;-1.20;99.90;;;;;;5072126;28;20220;-67
2023/02/22 08:04:52;;;;;;;0.70;0.70;;;-1.20;99.90;;;;;;5072453;28;20667;-69
2023/02/22 08:07:18;;;;;;;0.60;0.60;;;-1.20;99.90;;;;;;5071439;28;20203;-70
2023/02/22 08:09:44;;;;;;;0.73;0.73;;;-1.20;99.90;;;;;;5072409;28;20193;-69
2023/02/22 08:12:09;;;;;;;0.60;0.60;;;-1.10;99.90;;;;;;5054263;28;20295;-69
2023/02/22 08:14:35;;;;;;;0.60;0.60;;;-1.10;99.90;;;;;;5054030;28;20204;-68
2023/02/22 08:17:01;;;;;;;0.57;0.57;;;-1.00;99.90;;;;;;5072282;28;20228;-69
2023/02/22 08:19:26;;;;;;;0.70;0.70;;;-1.00;99.90;;;;;;5054098;28;20208;-69
2023/02/22 08:21:52;;;;;;;0.55;0.55;;;-0.90;99.90;;;;;;5079845;28;20228;-69
2023/02/22 08:24:18;;;;;;;0.50;0.50;;;-0.80;99.90;;;;;;5092333;28;20201;-70
2023/02/22 08:26:45;;;;;;;0.60;0.60;;;-0.90;99.90;;;;;;5057328;28;20583;-69
2023/02/22 08:29:13;;;;;;;0.60;0.60;;;-0.80;99.90;;;;;;5072278;28;20240;-69
2023/02/22 08:31:39;;;;;;;0.57;0.57;;;-0.80;99.90;;;;;;5071949;28;20283;-69
2023/02/22 08:34:05;;;;;;;0.50;0.50;;;-0.80;99.90;;;;;;5056039;28;20280;-69
2023/02/22 08:36:31;;;;;;;1.85;1.00;;;-0.80;99.90;;;;;;5051928;28;20243;-68
2023/02/22 08:38:58;;;;;;;0.52;0.52;;;-0.80;99.90;;;;;;5052011;28;20205;-69
2023/02/22 08:41:23;;;;;;;0.57;0.57;;;-0.70;99.90;;;;;;5051820;28;20585;-70
2023/02/22 08:43:49;;;;;;;0.68;0.68;;;-0.60;99.90;;;;;;5034047;28;20227;-69
2023/02/22 08:46:18;;;;;;;0.70;0.70;;;-0.60;99.90;;;;;;5051959;28;20552;-69
2023/02/22 08:48:51;;;;;;;0.60;0.60;;;-0.50;99.90;;;;;;5066535;28;20193;-69
2023/02/22 08:51:18;;;;;;;0.60;0.60;;;-0.40;99.90;;;;;;5071952;28;20726;-69
2023/02/22 08:53:43;;;;;;;0.60;0.60;;;-0.40;99.90;;;;;;5071946;28;20229;-68
2023/02/22 08:56:10;;;;;;;0.70;0.70;;;-0.50;99.90;;;;;;5071863;28;20266;-69
2023/02/22 08:58:36;;;;;;;0.70;0.70;;;-0.50;99.90;;;;;;5053806;28;20252;-69
2023/02/22 09:01:01;;;;;;;0.70;0.70;;;-0.50;99.90;;;;;;5071769;28;20229;-68
2023/02/22 09:03:27;;;;;;;0.68;0.68;;;-0.60;99.90;;;;;;5071347;28;20243;-69
2023/02/22 09:05:53;;;;;;;1.35;1.25;;;-0.60;99.90;;;;;;5071207;28;20684;-69
2023/02/22 09:08:20;;;;;;;0.70;0.70;;;-0.50;99.90;;;;;;5071769;28;20271;-70
2023/02/22 09:10:46;;;;;;;0.57;0.57;;;-0.50;99.90;;;;;;5071727;28;20193;-68
2023/02/22 09:13:12;;;;;;;0.70;0.70;;;-0.50;99.90;;;;;;5071815;28;20659;-68
2023/02/22 09:15:38;;;;;;;0.63;0.63;;;-0.50;99.90;;;;;;5071590;28;20205;-69
2023/02/22 09:18:07;;;;;;;0.50;0.50;;;-0.50;99.90;;;;;;5062727;28;20195;-68
2023/02/22 09:20:36;;;;;;;0.68;0.68;;;-0.40;99.90;;;;;;5095138;28;20216;-69
2023/02/22 09:23:05;;;;;;;0.50;0.50;;;-0.20;99.90;;;;;;5077946;28;20267;-68
2023/02/22 09:25:33;;;;;;;0.60;0.60;;;-0.10;99.90;;;;;;5075075;28;20201;-68
2023/02/22 09:27:59;;;;;;;0.60;0.60;;;-0.10;99.90;;;;;;5057197;28;20201;-68
2023/02/22 09:30:26;;;;;;;0.70;0.70;;;-0.20;99.90;;;;;;5074892;28;20541;-69
2023/02/22 09:32:54;;;;;;;0.60;0.60;;;-0.10;99.90;;;;;;5069265;28;20202;-69
2023/02/22 09:35:25;;;;;;;0.55;0.55;;;0.00;99.90;;;;;;5054928;28;20193;-70
2023/02/22 09:37:52;;;;;;;0.80;0.80;;;0.20;99.90;;;;;;5055014;28;20194;-70
2023/02/22 09:40:23;;;;;;;0.63;0.63;;;0.30;99.90;;;;;;5058418;28;20208;-69
2023/02/22 09:43:02;;;;;;;0.60;0.60;;;0.40;99.90;;;;;;5057218;28;20189;-69
2023/02/22 09:46:03;;;;;;;0.50;0.50;;;0.30;99.90;;;;;;5074538;28;20639;-70
2023/02/22 09:48:33;;;;;;;0.63;0.63;;;0.50;99.90;;;;;;5070457;28;20205;-69
2023/02/22 09:51:02;;;;;;;0.60;0.60;;;0.30;99.90;;;;;;5074625;28;20577;-69
2023/02/22 09:53:40;;;;;;;0.63;0.63;;;0.30;99.90;;;;;;5074507;28;20655;-68
2023/02/22 09:56:13;;;;;;;0.60;0.60;;;0.50;99.90;;;;;;5074544;28;20250;-69
2023/02/22 09:58:44;;;;;;;0.60;0.60;;;0.60;99.90;;;;;;5056348;28;20603;-69
2023/02/22 10:01:31;;;;;;;0.60;0.60;;;0.70;99.90;;;;;;5074390;28;20196;-69
2023/02/22 10:04:18;;;;;;;0.80;0.80;;;0.70;99.90;;;;;;5074048;28;20755;-72
2023/02/22 10:07:17;;;;;;;0.50;0.50;;;0.80;99.90;;;;;;5074565;28;20181;-69
2023/02/22 10:09:44;;;;;;;0.70;0.70;;;0.80;99.90;;;;;;5074045;28;20185;-70
2023/02/22 10:12:26;;;;;;;0.65;0.65;;;0.90;99.90;;;;;;5074269;28;20193;-70
2023/02/22 10:15:05;;;;;;;0.60;0.60;;;0.90;99.90;;;;;;5085889;28;20282;-70
2023/02/22 10:17:48;;;;;;;0.60;0.60;;;0.80;99.90;;;;;;5091463;28;20233;-69
2023/02/22 10:20:45;;;;;;;0.60;0.60;;;0.80;99.90;;;;;;5074130;28;20208;-69
2023/02/22 10:23:42;;;;;;;0.60;0.60;;;0.80;99.90;;;;;;5074184;28;20196;-69
2023/02/22 10:26:27;;;;;;;0.88;0.88;;;1.00;99.90;;;;;;5056549;28;20727;-69
2023/02/22 10:28:55;;;;;;;0.65;0.65;;;1.30;99.90;;;;;;5073478;28;20276;-69
2023/02/22 10:31:29;;;;;;;1.20;1.10;;;1.40;99.90;;;;;;5073667;28;20234;-70
2023/02/22 10:34:14;;;;;;;0.60;0.60;;;1.50;99.90;;;;;;5059128;28;20655;-69
2023/02/22 10:36:44;;;;;;;0.60;0.60;;;1.50;99.90;;;;;;5058564;28;20278;-70
2023/02/22 10:39:33;;;;;;;0.60;0.60;;;1.60;99.90;;;;;;5073745;28;20254;-69
2023/02/22 10:42:04;;;;;;;0.70;0.70;;;1.60;99.90;;;;;;5035984;28;20228;-70
2023/02/22 10:44:38;;;;;;;0.50;0.50;;;1.70;99.90;;;;;;5035705;28;20202;-69
2023/02/22 10:47:10;;;;;;;0.60;0.60;;;1.60;99.90;;;;;;5053960;28;20189;-69
2023/02/22 10:49:45;;;;;;;0.57;0.57;;;1.20;99.90;;;;;;5053461;28;20198;-69
2023/02/22 10:52:37;;;;;;;0.65;0.65;;;1.30;99.90;;;;;;5053932;28;20606;-69
2023/02/22 10:55:05;;;;;;;0.50;0.50;;;1.70;99.90;;;;;;5050833;28;20209;-70
2023/02/22 10:57:34;;;;;;;0.65;0.65;;;2.00;99.90;;;;;;5053319;28;20629;-70
2023/02/22 11:00:25;;;;;;;0.60;0.60;;;2.30;99.90;;;;;;5067821;28;20325;-70
2023/02/22 11:02:57;;;;;;;0.60;0.60;;;2.80;99.90;;;;;;5073294;28;20233;-70
2023/02/22 11:05:38;;;;;;;0.68;0.68;;;2.90;99.90;;;;;;5073034;28;20652;-71
2023/02/22 11:08:29;;;;;;;0.60;0.60;;;2.90;99.90;;;;;;5073164;28;20193;-70
2023/02/22 11:11:25;;;;;;;0.60;0.60;;;2.40;99.90;;;;;;5083274;28;20569;-70
2023/02/22 11:13:58;;;;;;;0.73;0.73;;;2.30;99.90;;;;;;5090052;28;20718;-70
2023/02/22 11:16:26;;;;;;;0.70;0.70;;;2.40;99.90;;;;;;5072974;28;20699;-70
2023/02/22 11:19:22;;;;;;;0.60;0.60;;;2.20;99.90;;;;;;5072994;28;20200;-70
2023/02/22 11:22:08;;;;;;;0.80;0.80;;;2.20;99.90;;;;;;5066205;28;20204;-70
2023/02/22 11:24:56;;;;;;;0.60;0.60;;;1.90;99.90;;;;;;5072788;28;20639;-70
2023/02/22 11:27:39;;;;;;;0.60;0.60;;;1.70;99.90;;;;;;5072907;28;20196;-70
2023/02/22 11:30:17;;;;;;;0.70;0.70;;;1.60;99.90;;;;;;5073018;28;20197;-70
2023/02/22 11:32:49;;;;;;;0.60;0.60;;;1.80;99.90;;;;;;5051359;28;20220;-70
2023/02/22 11:35:27;;;;;;;0.70;0.70;;;2.00;99.90;;;;;;5052761;28;20196;-72
2023/02/22 11:37:53;;;;;;;0.65;0.65;;;2.10;99.90;;;;;;5070746;28;20265;-75
2023/02/22 11:40:21;;;;;;;0.50;0.50;;;2.20;99.90;;;;;;5072441;28;20736;-73
2023/02/22 11:43:04;;;;;;;0.50;0.50;;;2.20;99.90;;;;;;5072349;28;20189;-75
2023/02/22 11:45:29;;;;;;;0.65;0.65;;;2.20;99.90;;;;;;5072552;28;20655;-71
2023/02/22 11:47:59;;;;;;;0.70;0.70;;;2.20;99.90;;;;;;5072558;28;20263;-70
2023/02/22 11:50:45;;;;;;;0.55;0.55;;;2.00;99.90;;;;;;5072169;28;20189;-71
2023/02/22 11:53:17;;;;;;;0.60;0.60;;;2.00;99.90;;;;;;5031397;28;20243;-71
2023/02/22 11:56:09;;;;;;;0.52;0.52;;;2.00;99.90;;;;;;5072308;28;20203;-72
2023/02/22 11:59:10;;;;;;;0.60;0.60;;;1.60;99.90;;;;;;5054327;28;20201;-69
2023/02/22 12:01:35;;;;;;;0.60;0.60;;;1.50;99.90;;;;;;5054172;28;20219;-70
2023/02/22 12:04:04;;;;;;;0.60;0.60;;;1.80;99.90;;;;;;5071940;28;20233;-71
2023/02/22 12:06:39;;;;;;;0.52;0.52;;;1.80;99.90;;;;;;5076781;28;20652;-73
2023/02/22 12:09:17;;;;;;;0.63;0.63;;;1.90;99.90;;;;;;5074570;28;20670;-69
2023/02/22 12:11:53;;;;;;;0.57;0.57;;;2.10;99.90;;;;;;5075391;28;20663;-70
2023/02/22 12:14:47;;;;;;;0.52;0.52;;;2.10;99.90;;;;;;5053903;28;20283;-71
2023/02/22 12:17:34;;;;;;;0.50;0.50;;;2.10;99.90;;;;;;5072410;28;20617;-71
2023/02/22 12:20:09;;;;;;;0.50;0.50;;;2.00;99.90;;;;;;5071935;28;20232;-70
2023/02/22 12:22:41;;;;;;;0.50;0.50;;;2.00;99.90;;;;;;5071895;28;20669;-71
2023/02/22 12:25:21;;;;;;;0.50;0.50;;;1.90;99.90;;;;;;5072168;28;20189;-69
2023/02/22 12:28:10;;;;;;;1.60;1.50;;;1.80;99.90;;;;;;5072278;28;20563;-70
2023/02/22 12:30:40;;;;;;;0.57;0.57;;;1.80;99.90;;;;;;5054050;28;20568;-69
2023/02/22 12:33:15;;;;;;;0.57;0.57;;;1.70;99.90;;;;;;5043141;28;20200;-70
2023/02/22 12:35:53;;;;;;;0.63;0.63;;;1.70;99.90;;;;;;5053963;28;20219;-70
2023/02/22 12:38:43;;;;;;;0.60;0.60;;;1.70;99.90;;;;;;5072024;28;20192;-70
2023/02/22 12:41:22;;;;;;;0.63;0.63;;;1.80;99.90;;;;;;5072044;28;20236;-70
2023/02/22 12:44:05;;;;;;;0.60;0.60;;;1.60;99.90;;;;;;5071894;28;20238;-70
2023/02/22 12:46:45;;;;;;;0.60;0.60;;;1.40;99.90;;;;;;5071863;28;20219;-70
2023/02/22 12:49:19;;;;;;;0.70;0.70;;;1.40;99.90;;;;;;5072065;28;20192;-70
2023/02/22 12:52:15;;;;;;;0.70;0.70;;;1.20;99.90;;;;;;5072023;28;20193;-70
2023/02/22 12:55:09;;;;;;;0.60;0.60;;;1.40;99.90;;;;;;5075665;28;20193;-70
2023/02/22 12:58:12;;;;;;;0.70;0.70;;;1.30;99.90;;;;;;5075567;28;20235;-69
2023/02/22 13:00:50;;;;;;;0.60;0.60;;;1.20;99.90;;;;;;5075262;28;20235;-70
2023/02/22 13:03:33;;;;;;;0.73;0.73;;;1.10;99.90;;;;;;5084351;28;20585;-69
2023/02/22 13:06:14;;;;;;;1.42;1.33;;;1.00;99.90;;;;;;5095530;28;20188;-70
2023/02/22 13:08:45;;;;;;;0.65;0.65;;;0.90;99.90;;;;;;5055549;28;20216;-69
2023/02/22 13:11:16;;;;;;;0.57;0.57;;;0.90;99.90;;;;;;5055344;28;20335;-69
2023/02/22 13:14:03;;;;;;;0.60;0.60;;;0.60;99.90;;;;;;5055427;28;20717;-69
2023/02/22 13:16:57;;;;;;;0.70;0.70;;;0.70;99.90;;;;;;5055255;28;20741;-70